sensor_id;sensor_type;location;lat;lon;timestamp;pressure;altitude;pressure_sealevel;temperature;humidity
34979;BME280;21185;50.978;13.720;2022-12-20T00:01:21;98832.28;;;0.65;82.10
34979;BME280;21185;50.978;13.720;2022-12-20T00:06:25;98836.41;;;0.68;81.98
34979;BME280;21185;50.978;13.720;2022-12-20T00:11:27;98824.53;;;0.67;81.99
34979;BME280;21185;50.978;13.720;2022-12-20T00:16:29;98812.69;;;0.65;81.97
34979;BME280;21185;50.978;13.720;2022-12-20T00:21:35;98792.91;;;0.69;81.91
34979;BME280;21185;50.978;13.720;2022-12-20T00:26:37;98779.94;;;0.72;81.79
34979;BME280;21185;50.978;13.720;2022-12-20T00:31:39;98756.78;;;0.75;81.81
34979;BME280;21185;50.978;13.720;2022-12-20T00:36:42;98753.41;;;0.75;81.62
34979;BME280;21185;50.978;13.720;2022-12-20T00:41:45;98746.66;;;0.74;81.61
34979;BME280;21185;50.978;13.720;2022-12-20T00:46:47;98743.38;;;0.72;81.76
34979;BME280;21185;50.978;13.720;2022-12-20T00:51:49;98768.09;;;0.71;81.72
34979;BME280;21185;50.978;13.720;2022-12-20T00:56:51;98778.13;;;0.74;81.85
34979;BME280;21185;50.978;13.720;2022-12-20T01:01:53;98768.56;;;0.78;81.66
34979;BME280;21185;50.978;13.720;2022-12-20T01:06:55;98762.53;;;0.79;81.66
34979;BME280;21185;50.978;13.720;2022-12-20T01:11:57;98752.41;;;0.77;81.72
34979;BME280;21185;50.978;13.720;2022-12-20T01:16:59;98756.69;;;0.77;81.90
34979;BME280;21185;50.978;13.720;2022-12-20T01:22:01;98755.78;;;0.78;81.82
34979;BME280;21185;50.978;13.720;2022-12-20T01:27:03;98744.66;;;0.79;82.06
34979;BME280;21185;50.978;13.720;2022-12-20T01:32:08;98749.59;;;0.82;82.09
34979;BME280;21185;50.978;13.720;2022-12-20T01:37:10;98753.44;;;0.89;81.94
34979;BME280;21185;50.978;13.720;2022-12-20T01:42:13;98752.44;;;0.91;81.88
34979;BME280;21185;50.978;13.720;2022-12-20T01:47:17;98754.81;;;0.94;81.98
34979;BME280;21185;50.978;13.720;2022-12-20T01:52:33;98753.72;;;0.98;82.00
34979;BME280;21185;50.978;13.720;2022-12-20T01:57:51;98747.59;;;1.01;81.92
34979;BME280;21185;50.978;13.720;2022-12-20T02:03:04;98738.09;;;1.03;82.04
34979;BME280;21185;50.978;13.720;2022-12-20T02:08:08;98722.59;;;1.06;82.14
34979;BME280;21185;50.978;13.720;2022-12-20T02:13:44;98739.19;;;1.13;82.41
34979;BME280;21185;50.978;13.720;2022-12-20T02:18:58;98729.34;;;1.21;82.39
34979;BME280;21185;50.978;13.720;2022-12-20T02:34:24;98743.38;;;1.28;82.60
34979;BME280;21185;50.978;13.720;2022-12-20T02:39:28;98733.81;;;1.32;82.54
34979;BME280;21185;50.978;13.720;2022-12-20T02:44:35;98724.22;;;1.36;82.55
34979;BME280;21185;50.978;13.720;2022-12-20T02:49:57;98728.31;;;1.38;82.56
34979;BME280;21185;50.978;13.720;2022-12-20T02:54:59;98731.69;;;1.39;82.65
34979;BME280;21185;50.978;13.720;2022-12-20T03:00:17;98718.00;;;1.40;82.84
34979;BME280;21185;50.978;13.720;2022-12-20T03:05:23;98723.00;;;1.41;83.02
34979;BME280;21185;50.978;13.720;2022-12-20T03:10:26;98719.63;;;1.41;83.02
34979;BME280;21185;50.978;13.720;2022-12-20T03:15:28;98708.50;;;1.42;83.05
34979;BME280;21185;50.978;13.720;2022-12-20T03:20:33;98714.53;;;1.41;83.09
34979;BME280;21185;50.978;13.720;2022-12-20T03:25:35;98714.63;;;1.39;83.23
34979;BME280;21185;50.978;13.720;2022-12-20T03:30:38;98714.44;;;1.42;83.27
34979;BME280;21185;50.978;13.720;2022-12-20T03:35:40;98696.44;;;1.44;83.14
34979;BME280;21185;50.978;13.720;2022-12-20T03:40:44;98702.56;;;1.41;83.30
34979;BME280;21185;50.978;13.720;2022-12-20T03:45:48;98707.75;;;1.40;83.32
34979;BME280;21185;50.978;13.720;2022-12-20T03:50:51;98700.19;;;1.38;83.40
34979;BME280;21185;50.978;13.720;2022-12-20T03:55:53;98709.41;;;1.41;83.48
34979;BME280;21185;50.978;13.720;2022-12-20T04:00:56;98708.50;;;1.42;83.55
34979;BME280;21185;50.978;13.720;2022-12-20T04:06:28;98704.00;;;1.45;83.30
34979;BME280;21185;50.978;13.720;2022-12-20T04:11:30;98705.75;;;1.45;83.29
34979;BME280;21185;50.978;13.720;2022-12-20T04:16:46;98704.84;;;1.46;83.45
34979;BME280;21185;50.978;13.720;2022-12-20T04:21:48;98691.94;;;1.47;83.52
34979;BME280;21185;50.978;13.720;2022-12-20T04:26:53;98690.84;;;1.51;83.30
34979;BME280;21185;50.978;13.720;2022-12-20T04:31:55;98707.72;;;1.54;83.31
34979;BME280;21185;50.978;13.720;2022-12-20T04:36:57;98690.75;;;1.53;83.48
34979;BME280;21185;50.978;13.720;2022-12-20T04:42:11;98692.38;;;1.54;83.64
34979;BME280;21185;50.978;13.720;2022-12-20T04:47:14;98690.56;;;1.56;83.67
34979;BME280;21185;50.978;13.720;2022-12-20T04:52:17;98695.47;;;1.59;83.71
34979;BME280;21185;50.978;13.720;2022-12-20T04:57:46;98678.50;;;1.58;83.67
34979;BME280;21185;50.978;13.720;2022-12-20T05:02:49;98678.50;;;1.58;83.81
34979;BME280;21185;50.978;13.720;2022-12-20T05:07:54;98675.03;;;1.59;83.82
34979;BME280;21185;50.978;13.720;2022-12-20T05:12:57;98677.56;;;1.59;83.59
34979;BME280;21185;50.978;13.720;2022-12-20T05:18:12;98678.31;;;1.61;83.88
34979;BME280;21185;50.978;13.720;2022-12-20T05:23:36;98666.25;;;1.63;83.77
34979;BME280;21185;50.978;13.720;2022-12-20T05:28:59;98653.16;;;1.68;83.51
34979;BME280;21185;50.978;13.720;2022-12-20T05:34:02;98659.91;;;1.69;83.54
34979;BME280;21185;50.978;13.720;2022-12-20T05:39:09;98664.94;;;1.70;83.92
34979;BME280;21185;50.978;13.720;2022-12-20T05:44:15;98649.50;;;1.72;83.78
34979;BME280;21185;50.978;13.720;2022-12-20T05:49:21;98643.34;;;1.74;83.97
34979;BME280;21185;50.978;13.720;2022-12-20T05:54:24;98650.13;;;1.75;83.83
34979;BME280;21185;50.978;13.720;2022-12-20T05:59:37;98643.97;;;1.78;83.83
34979;BME280;21185;50.978;13.720;2022-12-20T06:04:43;98646.63;;;1.76;84.17
34979;BME280;21185;50.978;13.720;2022-12-20T06:09:51;98632.72;;;1.80;84.15
34979;BME280;21185;50.978;13.720;2022-12-20T06:14:58;98622.59;;;1.79;83.98
34979;BME280;21185;50.978;13.720;2022-12-20T06:20:00;98616.84;;;1.75;84.01
34979;BME280;21185;50.978;13.720;2022-12-20T06:25:02;98632.41;;;1.72;84.21
34979;BME280;21185;50.978;13.720;2022-12-20T06:30:06;98637.41;;;1.74;84.36
34979;BME280;21185;50.978;13.720;2022-12-20T06:35:22;98639.06;;;1.75;84.39
34979;BME280;21185;50.978;13.720;2022-12-20T06:40:28;98631.28;;;1.76;84.38
34979;BME280;21185;50.978;13.720;2022-12-20T06:45:33;98644.06;;;1.76;84.60
34979;BME280;21185;50.978;13.720;2022-12-20T06:50:43;98644.91;;;1.77;84.58
34979;BME280;21185;50.978;13.720;2022-12-20T06:55:53;98643.25;;;1.76;84.65
34979;BME280;21185;50.978;13.720;2022-12-20T07:00:55;98656.06;;;1.76;84.70
34979;BME280;21185;50.978;13.720;2022-12-20T07:05:57;98657.69;;;1.77;84.70
34979;BME280;21185;50.978;13.720;2022-12-20T07:11:04;98654.13;;;1.79;84.89
34979;BME280;21185;50.978;13.720;2022-12-20T07:16:07;98652.19;;;1.83;84.56
34979;BME280;21185;50.978;13.720;2022-12-20T07:21:09;98646.88;;;1.86;84.70
34979;BME280;21185;50.978;13.720;2022-12-20T07:26:11;98633.97;;;1.87;84.60
34979;BME280;21185;50.978;13.720;2022-12-20T07:31:13;98636.53;;;1.87;84.51
34979;BME280;21185;50.978;13.720;2022-12-20T07:36:15;98631.31;;;1.89;84.69
34979;BME280;21185;50.978;13.720;2022-12-20T07:41:17;98637.25;;;1.89;84.71
34979;BME280;21185;50.978;13.720;2022-12-20T07:46:22;98618.41;;;1.90;84.61
34979;BME280;21185;50.978;13.720;2022-12-20T07:51:31;98626.09;;;1.90;84.70
34979;BME280;21185;50.978;13.720;2022-12-20T07:56:37;98652.41;;;1.92;84.68
34979;BME280;21185;50.978;13.720;2022-12-20T08:01:43;98657.72;;;1.89;84.57
34979;BME280;21185;50.978;13.720;2022-12-20T08:06:47;98655.28;;;1.88;84.71
34979;BME280;21185;50.978;13.720;2022-12-20T08:11:50;98648.59;;;1.85;84.65
34979;BME280;21185;50.978;13.720;2022-12-20T08:16:52;98652.19;;;1.83;84.74
34979;BME280;21185;50.978;13.720;2022-12-20T08:21:54;98648.50;;;1.87;84.70
34979;BME280;21185;50.978;13.720;2022-12-20T08:26:56;98635.63;;;1.88;84.49
34979;BME280;21185;50.978;13.720;2022-12-20T08:31:58;98659.28;;;1.92;84.56
34979;BME280;21185;50.978;13.720;2022-12-20T08:37:00;98649.75;;;1.94;84.48
34979;BME280;21185;50.978;13.720;2022-12-20T08:42:04;98650.66;;;1.93;84.39
34979;BME280;21185;50.978;13.720;2022-12-20T08:47:06;98636.34;;;1.90;84.38
34979;BME280;21185;50.978;13.720;2022-12-20T08:52:08;98637.16;;;1.91;84.25
34979;BME280;21185;50.978;13.720;2022-12-20T08:57:10;98646.66;;;1.89;84.11
34979;BME280;21185;50.978;13.720;2022-12-20T09:02:12;98638.91;;;1.90;84.21
34979;BME280;21185;50.978;13.720;2022-12-20T09:07:14;98652.22;;;1.95;84.11
34979;BME280;21185;50.978;13.720;2022-12-20T09:12:16;98638.09;;;2.03;83.98
34979;BME280;21185;50.978;13.720;2022-12-20T09:17:18;98639.34;;;2.10;83.70
34979;BME280;21185;50.978;13.720;2022-12-20T09:22:20;98649.19;;;2.16;83.81
34979;BME280;21185;50.978;13.720;2022-12-20T09:27:22;98658.19;;;2.21;83.61
34979;BME280;21185;50.978;13.720;2022-12-20T09:32:27;98659.94;;;2.21;83.64
34979;BME280;21185;50.978;13.720;2022-12-20T09:37:30;98660.47;;;2.26;83.59
34979;BME280;21185;50.978;13.720;2022-12-20T09:42:32;98668.75;;;2.30;83.31
34979;BME280;21185;50.978;13.720;2022-12-20T09:47:37;98665.69;;;2.37;83.31
34979;BME280;21185;50.978;13.720;2022-12-20T09:52:50;98681.47;;;2.44;83.32
34979;BME280;21185;50.978;13.720;2022-12-20T09:58:42;98685.38;;;2.49;83.04
34979;BME280;21185;50.978;13.720;2022-12-20T10:03:31;98667.97;;;2.54;82.74
34979;BME280;21185;50.978;13.720;2022-12-20T10:08:44;98679.94;;;2.54;82.96
34979;BME280;21185;50.978;13.720;2022-12-20T10:13:56;98679.13;;;2.53;82.74
34979;BME280;21185;50.978;13.720;2022-12-20T10:19:25;98672.88;;;2.45;82.76
34979;BME280;21185;50.978;13.720;2022-12-20T10:24:32;98671.53;;;2.39;82.64
34979;BME280;21185;50.978;13.720;2022-12-20T10:29:34;98671.94;;;2.33;82.68
34979;BME280;21185;50.978;13.720;2022-12-20T10:34:36;98672.13;;;2.30;82.62
34979;BME280;21185;50.978;13.720;2022-12-20T10:39:48;98652.69;;;2.27;82.60
34979;BME280;21185;50.978;13.720;2022-12-20T10:44:50;98658.81;;;2.25;82.40
34979;BME280;21185;50.978;13.720;2022-12-20T10:50:07;98636.06;;;2.20;82.29
34979;BME280;21185;50.978;13.720;2022-12-20T10:55:34;98614.25;;;2.15;82.21
34979;BME280;21185;50.978;13.720;2022-12-20T11:00:36;98622.88;;;2.14;82.32
34979;BME280;21185;50.978;13.720;2022-12-20T11:05:38;98613.34;;;2.16;82.17
34979;BME280;21185;50.978;13.720;2022-12-20T11:10:41;98588.56;;;2.16;82.17
34979;BME280;21185;50.978;13.720;2022-12-20T11:15:47;98577.28;;;2.19;81.99
34979;BME280;21185;50.978;13.720;2022-12-20T11:36:56;98541.03;;;2.25;81.79
34979;BME280;21185;50.978;13.720;2022-12-20T11:47:57;98532.44;;;2.26;81.87
34979;BME280;21185;50.978;13.720;2022-12-20T11:53:09;98530.38;;;2.31;81.58
34979;BME280;21185;50.978;13.720;2022-12-20T11:58:21;98538.56;;;2.36;81.64
34979;BME280;21185;50.978;13.720;2022-12-20T12:03:31;98519.50;;;2.40;81.33
34979;BME280;21185;50.978;13.720;2022-12-20T12:08:43;98536.72;;;2.38;81.30
34979;BME280;21185;50.978;13.720;2022-12-20T12:13:47;98529.97;;;2.37;81.37
34979;BME280;21185;50.978;13.720;2022-12-20T12:18:50;98515.63;;;2.35;81.14
34979;BME280;21185;50.978;13.720;2022-12-20T12:24:25;98520.03;;;2.33;81.07
34979;BME280;21185;50.978;13.720;2022-12-20T12:29:32;98491.47;;;2.26;81.15
34979;BME280;21185;50.978;13.720;2022-12-20T12:40:39;98468.25;;;2.16;80.96
34979;BME280;21185;50.978;13.720;2022-12-20T12:45:55;98471.81;;;2.14;81.01
34979;BME280;21185;50.978;13.720;2022-12-20T12:50:58;98466.72;;;2.14;81.16
34979;BME280;21185;50.978;13.720;2022-12-20T13:01:49;98457.91;;;2.18;81.08
34979;BME280;21185;50.978;13.720;2022-12-20T13:11:56;98460.25;;;2.21;80.90
34979;BME280;21185;50.978;13.720;2022-12-20T13:22:22;98448.88;;;2.25;80.95
34979;BME280;21185;50.978;13.720;2022-12-20T13:43:10;98398.25;;;2.28;80.81
34979;BME280;21185;50.978;13.720;2022-12-20T13:48:22;98397.22;;;2.31;80.82
34979;BME280;21185;50.978;13.720;2022-12-20T13:53:27;98395.38;;;2.33;80.84
34979;BME280;21185;50.978;13.720;2022-12-20T13:58:32;98384.31;;;2.33;80.69
34979;BME280;21185;50.978;13.720;2022-12-20T14:03:40;98376.75;;;2.31;80.69
34979;BME280;21185;50.978;13.720;2022-12-20T14:08:47;98381.75;;;2.33;80.79
34979;BME280;21185;50.978;13.720;2022-12-20T14:13:57;98370.59;;;2.34;80.76
34979;BME280;21185;50.978;13.720;2022-12-20T14:19:02;98384.22;;;2.34;80.82
34979;BME280;21185;50.978;13.720;2022-12-20T14:24:11;98369.56;;;2.36;80.57
34979;BME280;21185;50.978;13.720;2022-12-20T14:29:18;98363.72;;;2.34;80.71
34979;BME280;21185;50.978;13.720;2022-12-20T14:34:32;98363.03;;;2.32;80.83
34979;BME280;21185;50.978;13.720;2022-12-20T14:50:19;98346.25;;;2.28;80.76
34979;BME280;21185;50.978;13.720;2022-12-20T14:55:38;98330.88;;;2.28;80.91
34979;BME280;21185;50.978;13.720;2022-12-20T15:00:55;98324.13;;;2.27;81.01
34979;BME280;21185;50.978;13.720;2022-12-20T15:06:00;98333.53;;;2.26;81.07
34979;BME280;21185;50.978;13.720;2022-12-20T15:16:14;98341.50;;;2.35;80.96
34979;BME280;21185;50.978;13.720;2022-12-20T15:21:31;98331.16;;;2.36;80.91
34979;BME280;21185;50.978;13.720;2022-12-20T15:26:34;98332.91;;;2.36;81.06
34979;BME280;21185;50.978;13.720;2022-12-20T15:31:36;98337.78;;;2.39;81.01
34979;BME280;21185;50.978;13.720;2022-12-20T15:36:38;98338.50;;;2.41;81.10
34979;BME280;21185;50.978;13.720;2022-12-20T15:41:43;98348.53;;;2.44;81.12
34979;BME280;21185;50.978;13.720;2022-12-20T15:46:47;98351.09;;;2.44;80.97
34979;BME280;21185;50.978;13.720;2022-12-20T15:51:51;98344.44;;;2.41;81.04
34979;BME280;21185;50.978;13.720;2022-12-20T15:56:58;98348.84;;;2.39;81.11
34979;BME280;21185;50.978;13.720;2022-12-20T16:02:22;98348.84;;;2.39;81.13
34979;BME280;21185;50.978;13.720;2022-12-20T16:07:25;98345.47;;;2.39;81.24
34979;BME280;21185;50.978;13.720;2022-12-20T16:12:32;98350.38;;;2.42;81.22
34979;BME280;21185;50.978;13.720;2022-12-20T16:17:35;98345.97;;;2.44;80.97
34979;BME280;21185;50.978;13.720;2022-12-20T16:22:37;98340.84;;;2.44;81.04
34979;BME280;21185;50.978;13.720;2022-12-20T16:27:39;98342.38;;;2.46;81.09
34979;BME280;21185;50.978;13.720;2022-12-20T16:32:40;98329.78;;;2.43;81.03
34979;BME280;21185;50.978;13.720;2022-12-20T16:37:43;98327.56;;;2.39;81.21
34979;BME280;21185;50.978;13.720;2022-12-20T16:42:45;98337.91;;;2.37;81.21
34979;BME280;21185;50.978;13.720;2022-12-20T16:47:47;98343.03;;;2.37;81.46
34979;BME280;21185;50.978;13.720;2022-12-20T16:52:50;98335.34;;;2.37;81.32
34979;BME280;21185;50.978;13.720;2022-12-20T16:57:52;98341.38;;;2.36;81.10
34979;BME280;21185;50.978;13.720;2022-12-20T17:02:54;98342.44;;;2.34;81.28
34979;BME280;21185;50.978;13.720;2022-12-20T17:07:57;98333.94;;;2.33;81.34
34979;BME280;21185;50.978;13.720;2022-12-20T17:12:59;98324.63;;;2.32;81.11
34979;BME280;21185;50.978;13.720;2022-12-20T17:18:02;98318.78;;;2.30;81.28
34979;BME280;21185;50.978;13.720;2022-12-20T17:23:04;98326.56;;;2.28;81.33
34979;BME280;21185;50.978;13.720;2022-12-20T17:28:23;98341.81;;;2.30;81.31
34979;BME280;21185;50.978;13.720;2022-12-20T17:33:26;98322.28;;;2.29;81.25
34979;BME280;21185;50.978;13.720;2022-12-20T17:38:28;98318.06;;;2.28;81.32
34979;BME280;21185;50.978;13.720;2022-12-20T17:43:30;98293.41;;;2.27;81.22
34979;BME280;21185;50.978;13.720;2022-12-20T17:48:32;98300.25;;;2.26;81.26
34979;BME280;21185;50.978;13.720;2022-12-20T17:53:40;98300.25;;;2.26;81.26
34979;BME280;21185;50.978;13.720;2022-12-20T17:58:42;98311.44;;;2.25;81.19
34979;BME280;21185;50.978;13.720;2022-12-20T18:03:44;98307.22;;;2.24;81.23
34979;BME280;21185;50.978;13.720;2022-12-20T18:09:06;98286.03;;;2.22;81.27
34979;BME280;21185;50.978;13.720;2022-12-20T18:14:12;98274.06;;;2.23;81.43
34979;BME280;21185;50.978;13.720;2022-12-20T18:19:16;98267.19;;;2.23;81.38
34979;BME280;21185;50.978;13.720;2022-12-20T18:24:18;98260.34;;;2.24;81.38
34979;BME280;21185;50.978;13.720;2022-12-20T18:29:22;98277.44;;;2.23;81.27
34979;BME280;21185;50.978;13.720;2022-12-20T18:34:23;98269.53;;;2.26;81.29
34979;BME280;21185;50.978;13.720;2022-12-20T18:39:25;98256.84;;;2.25;81.36
34979;BME280;21185;50.978;13.720;2022-12-20T18:44:27;98247.41;;;2.25;81.38
34979;BME280;21185;50.978;13.720;2022-12-20T18:49:29;98245.78;;;2.24;81.29
34979;BME280;21185;50.978;13.720;2022-12-20T18:54:31;98252.66;;;2.24;81.40
34979;BME280;21185;50.978;13.720;2022-12-20T18:59:33;98240.06;;;2.21;81.29
34979;BME280;21185;50.978;13.720;2022-12-20T19:04:35;98249.81;;;2.16;81.34
34979;BME280;21185;50.978;13.720;2022-12-20T19:09:37;98265.63;;;2.10;81.35
34979;BME280;21185;50.978;13.720;2022-12-20T19:14:39;98265.84;;;2.07;81.41
34979;BME280;21185;50.978;13.720;2022-12-20T19:19:41;98252.34;;;2.05;81.40
34979;BME280;21185;50.978;13.720;2022-12-20T19:24:43;98264.53;;;2.01;81.44
34979;BME280;21185;50.978;13.720;2022-12-20T19:29:44;98259.41;;;2.01;81.37
34979;BME280;21185;50.978;13.720;2022-12-20T19:34:47;98264.63;;;2.00;81.38
34979;BME280;21185;50.978;13.720;2022-12-20T19:39:49;98265.47;;;2.00;81.34
34979;BME280;21185;50.978;13.720;2022-12-20T19:44:51;98250.22;;;1.99;81.51
34979;BME280;21185;50.978;13.720;2022-12-20T19:49:53;98223.00;;;1.98;81.28
34979;BME280;21185;50.978;13.720;2022-12-20T19:55:01;98228.94;;;1.98;81.38
34979;BME280;21185;50.978;13.720;2022-12-20T20:00:04;98224.28;;;2.03;81.28
34979;BME280;21185;50.978;13.720;2022-12-20T20:05:12;98230.22;;;2.04;81.35
34979;BME280;21185;50.978;13.720;2022-12-20T20:10:16;98230.44;;;2.01;81.36
34979;BME280;21185;50.978;13.720;2022-12-20T20:15:18;98245.81;;;2.01;81.73
34979;BME280;21185;50.978;13.720;2022-12-20T20:20:20;98225.31;;;2.01;81.49
34979;BME280;21185;50.978;13.720;2022-12-20T20:25:23;98228.00;;;1.99;81.60
34979;BME280;21185;50.978;13.720;2022-12-20T20:30:25;98225.31;;;2.01;81.74
34979;BME280;21185;50.978;13.720;2022-12-20T20:35:27;98243.94;;;2.03;81.68
34979;BME280;21185;50.978;13.720;2022-12-20T20:40:29;98219.88;;;2.05;81.62
34979;BME280;21185;50.978;13.720;2022-12-20T20:45:31;98230.00;;;2.07;81.71
34979;BME280;21185;50.978;13.720;2022-12-20T20:50:32;98222.81;;;2.12;81.79
34979;BME280;21185;50.978;13.720;2022-12-20T20:55:34;98205.72;;;2.12;81.71
34979;BME280;21185;50.978;13.720;2022-12-20T21:00:36;98212.34;;;2.15;81.77
34979;BME280;21185;50.978;13.720;2022-12-20T21:05:38;98217.25;;;2.18;81.69
34979;BME280;21185;50.978;13.720;2022-12-20T21:11:07;98213.75;;;2.19;81.51
34979;BME280;21185;50.978;13.720;2022-12-20T21:16:11;98205.16;;;2.20;81.60
34979;BME280;21185;50.978;13.720;2022-12-20T21:21:13;98200.97;;;2.19;81.74
34979;BME280;21185;50.978;13.720;2022-12-20T21:26:17;98179.56;;;2.20;81.59
34979;BME280;21185;50.978;13.720;2022-12-20T21:31:19;98204.00;;;2.24;81.56
34979;BME280;21185;50.978;13.720;2022-12-20T21:36:22;98190.06;;;2.28;81.56
34979;BME280;21185;50.978;13.720;2022-12-20T21:41:26;98190.75;;;2.30;81.55
34979;BME280;21185;50.978;13.720;2022-12-20T21:46:29;98195.78;;;2.32;81.38
34979;BME280;21185;50.978;13.720;2022-12-20T21:51:33;98190.53;;;2.33;81.46
34979;BME280;21185;50.978;13.720;2022-12-20T21:56:36;98192.16;;;2.34;81.31
34979;BME280;21185;50.978;13.720;2022-12-20T22:01:38;98205.78;;;2.35;81.34
34979;BME280;21185;50.978;13.720;2022-12-20T22:06:40;98189.50;;;2.36;81.45
34979;BME280;21185;50.978;13.720;2022-12-20T22:11:45;98187.88;;;2.35;81.36
34979;BME280;21185;50.978;13.720;2022-12-20T22:16:48;98198.09;;;2.35;81.45
34979;BME280;21185;50.978;13.720;2022-12-20T22:21:50;98192.88;;;2.36;81.28
34979;BME280;21185;50.978;13.720;2022-12-20T22:26:59;98182.84;;;2.33;81.34
34979;BME280;21185;50.978;13.720;2022-12-20T22:32:04;98165.97;;;2.31;81.27
34979;BME280;21185;50.978;13.720;2022-12-20T22:37:06;98163.63;;;2.27;81.42
34979;BME280;21185;50.978;13.720;2022-12-20T22:42:08;98173.75;;;2.29;81.47
34979;BME280;21185;50.978;13.720;2022-12-20T22:47:10;98185.63;;;2.30;81.54
34979;BME280;21185;50.978;13.720;2022-12-20T22:52:12;98178.78;;;2.31;81.45
34979;BME280;21185;50.978;13.720;2022-12-20T22:57:14;98169.22;;;2.33;81.49
34979;BME280;21185;50.978;13.720;2022-12-20T23:02:16;98170.63;;;2.37;81.25
34979;BME280;21185;50.978;13.720;2022-12-20T23:07:19;98156.78;;;2.39;80.96
34979;BME280;21185;50.978;13.720;2022-12-20T23:12:21;98162.84;;;2.38;81.30
34979;BME280;21185;50.978;13.720;2022-12-20T23:17:41;98152.81;;;2.35;81.41
34979;BME280;21185;50.978;13.720;2022-12-20T23:22:43;98144.22;;;2.36;81.41
34979;BME280;21185;50.978;13.720;2022-12-20T23:27:47;98145.63;;;2.40;81.36
34979;BME280;21185;50.978;13.720;2022-12-20T23:32:50;98127.59;;;2.42;81.17
34979;BME280;21185;50.978;13.720;2022-12-20T23:37:53;98117.34;;;2.42;81.16
34979;BME280;21185;50.978;13.720;2022-12-20T23:42:56;98112.78;;;2.34;81.22
34979;BME280;21185;50.978;13.720;2022-12-20T23:47:58;98118.13;;;2.31;81.29
34979;BME280;21185;50.978;13.720;2022-12-20T23:53:00;98113.03;;;2.31;81.23
34979;BME280;21185;50.978;13.720;2022-12-20T23:58:02;98112.91;;;2.33;81.09
